Hauptseite
METAR-TAF:

METAR-TAF

Flughäfen :

Aigen im Ennstal, Österreich

Breite: 47-32N, Länge: 014-08E, Höhe: 638 m

METAR: fehlend

Zeit: 23:21 (21:21 UTC)

Prognose

Neuester Wetterbericht von vor 13 Stunden und 6 Minuten, um 08:15 UTC
Gültige Prognose vom 03 um 09 UTC bis 03 um 18 UTC
Wind 3 kt aus unterschiedlichen Richtungen
Sichtweite 10 km oder mehr
Leicht bewölkt in der Höhe von 6000 ft
Durchbrochene Bewölkung in der Höhe von 8000 ft
Zeitweise
vom 03 um 09 UTC bis 03 um 17 UTC
Wind 10 kt aus West/Südwest, Böen bis zu 20 kt

TAF: LOXA 030815Z 0309/0318 VRB03KT 9999 FEW060 BKN080 TEMPO 0309/0317 24010G20KT

Wetterbeobachtungen und Prognosen von mehr als 4000 Flughäfen (METAR und TAF Bericht).

Die verfügbaren Stationen werden durch gelbe und rote Markierungen auf der Karte dargestellt.

Führen Sie die Maus auf sie, um den Namen der Station zu sehen.

Darauf klicken, um die Beobachtung von Wetterbeobachtungen und Prognosen zu sehen.

Um die Karte zu ändern : klicken Sie auf den grünen Tasten mit einem schwarzen Kreuz Zum Vergrößern, auf den grünen Button mit einem Gedankenstrich zu verkleinern, oder auf die grünen Pfeile für benachbarte Karten.


METAR-TAF: